createdAt,value
2017-12-19T00:02:03.695Z,6.10
2017-12-19T00:04:31.558Z,4.60
2017-12-19T00:06:59.526Z,2.90
2017-12-19T00:09:27.801Z,4.73
2017-12-19T00:11:55.661Z,3.50
2017-12-19T00:14:23.634Z,3.20
2017-12-19T00:16:51.499Z,3.80
2017-12-19T00:19:19.364Z,3.40
2017-12-19T00:21:47.331Z,3.27
2017-12-19T00:24:15.402Z,3.70
2017-12-19T00:26:43.441Z,3.90
2017-12-19T00:29:11.350Z,3.60
2017-12-19T00:31:40.335Z,4.30
2017-12-19T00:34:08.400Z,3.40
2017-12-19T00:36:37.392Z,3.53
2017-12-19T00:39:05.366Z,4.10
2017-12-19T00:41:34.248Z,3.43
2017-12-19T00:44:02.216Z,4.57
2017-12-19T00:46:31.207Z,2.87
2017-12-19T00:48:59.277Z,3.53
2017-12-19T00:51:28.886Z,3.43
2017-12-19T00:53:57.876Z,2.73
2017-12-19T00:56:27.588Z,3.90
2017-12-19T00:58:56.679Z,5.77
2017-12-19T01:01:24.646Z,8.70
2017-12-19T01:03:52.820Z,9.20
2017-12-19T01:06:22.527Z,6.23
2017-12-19T01:08:50.050Z,5.90
2017-12-19T01:11:18.371Z,3.27
2017-12-19T01:13:45.918Z,4.50
2017-12-19T01:16:13.428Z,2.70
2017-12-19T01:18:40.928Z,3.60
2017-12-19T01:21:08.445Z,4.10
2017-12-19T01:23:36.705Z,3.57
2017-12-19T01:26:06.182Z,3.03
2017-12-19T01:28:33.681Z,3.03
2017-12-19T01:31:01.199Z,6.00
2017-12-19T01:33:28.690Z,8.07
2017-12-19T01:35:57.693Z,3.13
2017-12-19T01:38:25.973Z,3.57
2017-12-19T01:40:54.229Z,3.27
2017-12-19T01:43:22.493Z,4.37
2017-12-19T01:45:53.491Z,3.67
2017-12-19T01:48:20.986Z,3.33
2017-12-19T01:50:48.510Z,3.10
2017-12-19T01:53:16.005Z,4.27
2017-12-19T01:55:43.492Z,3.63
2017-12-19T01:58:11.776Z,4.00
2017-12-19T02:00:39.269Z,2.97
2017-12-19T02:03:06.797Z,3.10
2017-12-19T02:05:34.285Z,3.53
2017-12-19T02:08:01.782Z,3.50
2017-12-19T02:10:30.070Z,3.17
2017-12-19T02:12:58.342Z,3.67
2017-12-19T02:15:26.606Z,3.70
2017-12-19T02:17:56.097Z,2.87
2017-12-19T02:20:25.097Z,2.80
2017-12-19T02:22:54.561Z,3.20
2017-12-19T02:25:22.073Z,3.33
2017-12-19T02:27:50.336Z,2.87
2017-12-19T02:30:17.845Z,3.83
2017-12-19T02:32:45.338Z,3.17
2017-12-19T02:35:12.829Z,3.03
2017-12-19T02:37:40.366Z,3.37
2017-12-19T02:40:08.658Z,4.10
2017-12-19T02:42:48.828Z,2.57
2017-12-19T02:45:17.277Z,3.57
2017-12-19T02:47:45.538Z,3.93
2017-12-19T02:50:13.827Z,3.70
2017-12-19T02:52:42.110Z,3.33
2017-12-19T02:55:13.421Z,2.50
2017-12-19T02:57:40.941Z,3.80
2017-12-19T03:00:08.449Z,3.40
2017-12-19T03:02:35.970Z,3.10
2017-12-19T03:05:03.473Z,3.40
2017-12-19T03:07:31.733Z,3.47
2017-12-19T03:10:02.705Z,3.43
2017-12-19T03:12:30.198Z,3.63
2017-12-19T03:14:57.718Z,3.37
2017-12-19T03:17:25.973Z,3.40
2017-12-19T03:19:54.250Z,2.60
2017-12-19T03:22:22.515Z,3.27
2017-12-19T03:24:51.517Z,2.67
2017-12-19T03:27:19.797Z,4.10
2017-12-19T03:29:48.054Z,3.67
2017-12-19T03:32:15.574Z,2.90
2017-12-19T03:34:43.062Z,3.00
2017-12-19T03:37:10.557Z,3.57
2017-12-19T03:39:38.068Z,3.50
2017-12-19T03:42:05.565Z,6.00
2017-12-19T03:44:35.806Z,3.20
2017-12-19T03:47:03.293Z,3.43
2017-12-19T03:49:30.806Z,4.60
2017-12-19T03:51:58.293Z,2.80
2017-12-19T03:54:25.789Z,2.80
2017-12-19T03:56:53.302Z,2.70
2017-12-19T03:59:20.793Z,3.43
2017-12-19T04:01:49.237Z,3.50
2017-12-19T04:04:16.748Z,3.27
2017-12-19T04:06:45.006Z,3.37
2017-12-19T04:09:13.269Z,3.13
2017-12-19T04:11:40.780Z,3.20
2017-12-19T04:14:08.273Z,2.53
2017-12-19T04:16:36.722Z,3.67
2017-12-19T04:19:04.229Z,3.27
2017-12-19T04:21:33.228Z,3.03
2017-12-19T04:24:01.486Z,4.00
2017-12-19T04:26:28.993Z,2.90
2017-12-19T04:28:56.481Z,3.80
2017-12-19T04:31:23.972Z,2.63
2017-12-19T04:33:52.250Z,3.07
2017-12-19T04:36:20.509Z,3.03
2017-12-19T04:38:48.001Z,3.17
2017-12-19T04:41:16.283Z,3.60
2017-12-19T04:43:43.776Z,3.20
2017-12-19T04:46:11.290Z,3.00
2017-12-19T04:48:39.554Z,3.40
2017-12-19T04:51:07.814Z,3.00
2017-12-19T04:53:36.829Z,3.00
2017-12-19T04:56:05.081Z,3.53
2017-12-19T04:58:35.073Z,2.60
2017-12-19T05:01:02.569Z,3.13
2017-12-19T05:03:30.821Z,3.27
2017-12-19T05:05:58.358Z,3.70
2017-12-19T05:08:25.849Z,2.63
2017-12-19T05:10:53.395Z,3.10
2017-12-19T05:13:20.877Z,4.40
2017-12-19T05:15:49.141Z,2.93
2017-12-19T05:18:16.633Z,4.20
2017-12-19T05:20:44.197Z,3.43
2017-12-19T05:23:12.638Z,2.80
2017-12-19T05:25:40.917Z,3.43
2017-12-19T05:28:09.205Z,2.80
2017-12-19T05:30:37.462Z,2.77
2017-12-19T05:33:05.741Z,2.60
2017-12-19T05:35:33.998Z,3.47
2017-12-19T05:38:03.941Z,2.87
2017-12-19T05:40:32.245Z,3.03
2017-12-19T05:42:59.733Z,3.70
2017-12-19T05:45:29.196Z,2.93
2017-12-19T05:47:56.689Z,3.00
2017-12-19T05:50:26.670Z,3.00
2017-12-19T05:52:54.180Z,2.90
2017-12-19T05:55:22.446Z,4.23
2017-12-19T05:57:49.962Z,3.07
2017-12-19T06:00:17.454Z,2.90
2017-12-19T06:02:44.942Z,2.93
2017-12-19T06:05:14.184Z,3.10
2017-12-19T06:07:41.673Z,3.03
2017-12-19T06:10:10.694Z,6.40
2017-12-19T06:12:38.970Z,3.60
2017-12-19T06:15:08.160Z,3.03
2017-12-19T06:17:36.438Z,3.43
2017-12-19T06:20:04.695Z,3.00
2017-12-19T06:22:32.977Z,2.90
2017-12-19T06:25:01.274Z,3.30
2017-12-19T06:27:28.733Z,3.07
2017-12-19T06:29:56.244Z,3.50
2017-12-19T06:32:23.738Z,4.47
2017-12-19T06:34:52.017Z,4.00
2017-12-19T06:37:19.513Z,3.60
2017-12-19T06:39:47.009Z,2.80
2017-12-19T06:42:14.518Z,3.03
2017-12-19T06:44:42.954Z,4.10
2017-12-19T06:47:10.487Z,3.37
2017-12-19T06:49:37.978Z,3.00
2017-12-19T06:52:06.234Z,3.00
2017-12-19T06:54:34.545Z,3.47
2017-12-19T06:57:02.026Z,3.07
2017-12-19T06:59:29.648Z,3.13
2017-12-19T07:01:57.589Z,3.90
2017-12-19T07:04:25.600Z,3.67
2017-12-19T07:06:53.773Z,3.03
2017-12-19T07:09:21.906Z,3.70
2017-12-19T07:11:49.913Z,3.73
2017-12-19T07:14:17.983Z,4.97
2017-12-19T07:16:45.952Z,3.47
2017-12-19T07:19:13.919Z,2.90
2017-12-19T07:21:41.988Z,4.63
2017-12-19T07:24:10.059Z,2.93
2017-12-19T07:26:38.134Z,4.77
2017-12-19T07:29:07.018Z,5.20
2017-12-19T07:31:34.986Z,2.90
2017-12-19T07:34:02.955Z,3.57
2017-12-19T07:36:31.027Z,141.53
2017-12-19T07:38:58.992Z,390.07
2017-12-19T07:41:27.983Z,355.67
2017-12-19T07:43:56.054Z,202.70
2017-12-19T07:46:24.124Z,371.43
2017-12-19T07:48:52.195Z,533.07
2017-12-19T07:51:21.903Z,361.67
2017-12-19T07:53:49.871Z,332.00
2017-12-19T07:56:18.010Z,269.30
2017-12-19T07:58:46.091Z,233.00
2017-12-19T08:01:14.183Z,228.50
2017-12-19T08:03:42.254Z,192.33
2017-12-19T08:06:10.195Z,186.80
2017-12-19T08:08:38.190Z,183.70
2017-12-19T08:11:06.156Z,166.67
2017-12-19T08:13:33.991Z,125.50
2017-12-19T08:16:01.990Z,127.17
2017-12-19T08:18:29.490Z,114.53
2017-12-19T08:20:57.012Z,103.63
2017-12-19T08:23:24.509Z,106.17
2017-12-19T08:25:52.777Z,122.47
2017-12-19T08:28:20.297Z,99.17
2017-12-19T08:30:47.793Z,97.17
2017-12-19T08:33:15.289Z,102.67
2017-12-19T08:35:42.850Z,84.47
2017-12-19T08:38:10.369Z,65.43
2017-12-19T08:40:39.609Z,91.87
2017-12-19T08:43:07.109Z,78.83
2017-12-19T08:45:34.627Z,68.70
2017-12-19T08:48:02.128Z,73.80
2017-12-19T08:50:29.650Z,52.90
2017-12-19T08:52:57.178Z,62.27
2017-12-19T08:55:25.437Z,52.53
2017-12-19T08:57:53.735Z,58.47
2017-12-19T09:00:21.246Z,52.57
2017-12-19T09:02:48.767Z,47.50
2017-12-19T09:05:16.289Z,49.20
2017-12-19T09:07:44.558Z,46.07
2017-12-19T09:10:13.005Z,48.10
2017-12-19T09:12:40.525Z,49.93
2017-12-19T09:15:08.031Z,43.33
2017-12-19T09:17:35.562Z,47.43
2017-12-19T09:20:03.067Z,47.93
2017-12-19T09:22:31.522Z,43.47
2017-12-19T09:24:59.070Z,28.80
2017-12-19T09:27:26.565Z,40.23
2017-12-19T09:29:54.825Z,31.77
2017-12-19T09:32:25.785Z,33.10
2017-12-19T09:34:54.051Z,32.23
2017-12-19T09:37:22.320Z,24.67
2017-12-19T09:39:52.312Z,30.53
2017-12-19T09:42:19.809Z,33.13
2017-12-19T09:44:48.074Z,26.77
2017-12-19T09:47:16.373Z,25.67
2017-12-19T09:49:43.889Z,27.10
2017-12-19T09:52:12.150Z,29.37
2017-12-19T09:54:39.661Z,18.57
2017-12-19T09:57:07.156Z,24.80
2017-12-19T09:59:34.678Z,24.80
2017-12-19T10:02:02.177Z,26.13
2017-12-19T10:04:29.693Z,21.90
2017-12-19T10:06:57.191Z,18.10
2017-12-19T10:09:24.690Z,13.83
2017-12-19T10:11:52.974Z,23.87
2017-12-19T10:14:20.477Z,20.37
2017-12-19T10:16:47.994Z,16.50
2017-12-19T10:19:15.494Z,24.23
2017-12-19T10:21:44.945Z,17.90
2017-12-19T10:24:12.449Z,21.53
2017-12-19T10:26:39.975Z,17.87
2017-12-19T10:29:07.473Z,13.87
2017-12-19T10:31:34.992Z,23.33
2017-12-19T10:34:02.485Z,17.63
2017-12-19T10:36:29.973Z,15.33
2017-12-19T10:38:58.257Z,13.37
2017-12-19T10:41:26.513Z,10.80
2017-12-19T10:43:54.034Z,11.10
2017-12-19T10:46:21.530Z,9.00
2017-12-19T10:48:49.814Z,12.03
2017-12-19T10:51:18.081Z,10.43
2017-12-19T10:53:46.361Z,11.67
2017-12-19T10:56:14.628Z,8.87
2017-12-19T10:58:42.145Z,12.23
2017-12-19T11:01:09.638Z,7.50
2017-12-19T11:03:37.941Z,12.97
2017-12-19T11:06:05.437Z,13.30
2017-12-19T11:08:32.929Z,11.03
2017-12-19T11:11:00.475Z,12.60
2017-12-19T11:13:27.969Z,11.67
2017-12-19T11:15:55.490Z,11.77
2017-12-19T11:18:22.981Z,13.53
2017-12-19T11:20:50.505Z,13.30
2017-12-19T11:23:17.998Z,15.83
2017-12-19T11:25:45.521Z,7.33
2017-12-19T11:28:13.785Z,7.17
2017-12-19T11:30:41.292Z,9.30
2017-12-19T11:33:08.785Z,5.60
2017-12-19T11:35:36.277Z,9.23
2017-12-19T11:38:04.574Z,9.20
2017-12-19T11:40:32.069Z,7.03
2017-12-19T11:42:59.581Z,7.67
2017-12-19T11:45:27.839Z,9.80
2017-12-19T11:47:56.122Z,7.03
2017-12-19T11:50:24.403Z,8.40
2017-12-19T11:52:52.662Z,9.10
2017-12-19T11:55:20.185Z,10.03
2017-12-19T11:57:47.678Z,7.07
2017-12-19T12:00:15.965Z,6.40
2017-12-19T12:02:44.220Z,6.03
2017-12-19T12:05:13.233Z,7.63
2017-12-19T12:07:41.519Z,5.60
2017-12-19T12:10:09.017Z,6.50
2017-12-19T12:12:36.503Z,7.10
2017-12-19T12:15:04.786Z,5.30
2017-12-19T12:17:33.045Z,6.80
2017-12-19T12:20:00.534Z,7.37
2017-12-19T12:22:28.830Z,5.33
2017-12-19T12:24:56.325Z,6.40
2017-12-19T12:27:23.812Z,9.47
2017-12-19T12:29:52.090Z,5.03
2017-12-19T12:32:20.353Z,8.17
2017-12-19T12:34:48.615Z,5.37
2017-12-19T12:37:17.645Z,6.30
2017-12-19T12:39:45.133Z,6.00
2017-12-19T12:42:12.629Z,8.57
2017-12-19T12:44:40.909Z,6.50
2017-12-19T12:47:08.401Z,5.40
2017-12-19T12:49:35.920Z,5.53
2017-12-19T12:52:03.414Z,8.63
2017-12-19T12:54:30.914Z,5.47
2017-12-19T12:56:58.432Z,4.93
2017-12-19T12:59:26.873Z,5.07
2017-12-19T13:01:55.148Z,11.00
2017-12-19T13:04:25.389Z,8.20
2017-12-19T13:06:52.885Z,5.83
2017-12-19T13:09:20.377Z,4.97
2017-12-19T13:11:47.887Z,4.57
2017-12-19T13:14:15.382Z,7.53
2017-12-19T13:16:44.381Z,6.70
2017-12-19T13:19:11.889Z,4.67
2017-12-19T13:21:39.386Z,5.40
2017-12-19T13:24:06.883Z,4.73
2017-12-19T13:26:34.398Z,8.70
2017-12-19T13:29:01.889Z,4.43
2017-12-19T13:31:30.146Z,4.80
2017-12-19T13:33:58.433Z,4.43
2017-12-19T13:36:26.693Z,4.97
2017-12-19T13:38:54.949Z,4.53
2017-12-19T13:41:22.466Z,4.83
2017-12-19T13:43:50.909Z,3.90
2017-12-19T13:46:19.169Z,4.77
2017-12-19T13:48:46.685Z,5.57
2017-12-19T13:51:15.135Z,4.47
2017-12-19T13:53:43.418Z,5.90
2017-12-19T13:56:10.918Z,5.37
2017-12-19T13:58:38.405Z,4.77
2017-12-19T14:01:05.914Z,3.67
2017-12-19T14:03:33.402Z,5.10
2017-12-19T14:06:00.889Z,3.47
2017-12-19T14:08:29.166Z,4.77
2017-12-19T14:10:57.416Z,3.80
2017-12-19T14:13:25.693Z,4.57
2017-12-19T14:15:53.945Z,5.10
2017-12-19T14:18:21.470Z,3.40
2017-12-19T14:20:48.981Z,4.37
2017-12-19T14:23:17.244Z,3.80
2017-12-19T14:25:44.760Z,4.47
2017-12-19T14:28:12.257Z,4.33
2017-12-19T14:30:39.749Z,4.70
2017-12-19T14:33:08.025Z,4.03
2017-12-19T14:35:36.276Z,3.83
2017-12-19T14:38:04.561Z,4.27
2017-12-19T14:40:32.817Z,3.87
2017-12-19T14:43:00.313Z,4.23
2017-12-19T14:45:27.830Z,4.10
2017-12-19T14:47:55.322Z,4.03
2017-12-19T14:50:23.606Z,3.87
2017-12-19T14:52:51.094Z,4.80
2017-12-19T14:55:18.614Z,4.30
2017-12-19T14:57:47.081Z,3.73
2017-12-19T15:00:15.361Z,3.97
2017-12-19T15:02:43.613Z,3.67
2017-12-19T15:05:11.873Z,5.57
2017-12-19T15:07:39.402Z,4.77
2017-12-19T15:10:06.905Z,3.63
2017-12-19T15:12:35.185Z,4.00
2017-12-19T15:15:02.668Z,4.70
2017-12-19T15:17:30.184Z,5.67
2017-12-19T15:19:58.611Z,4.00
2017-12-19T15:22:26.129Z,4.73
2017-12-19T15:24:53.616Z,3.60
2017-12-19T15:27:21.129Z,3.93
2017-12-19T15:29:49.394Z,2.90
2017-12-19T15:32:16.910Z,5.10
2017-12-19T15:34:44.425Z,4.27
2017-12-19T15:37:12.682Z,4.17
2017-12-19T15:39:40.194Z,3.50
2017-12-19T15:42:07.689Z,5.43
2017-12-19T15:44:35.208Z,3.10
2017-12-19T15:47:02.697Z,3.73
2017-12-19T15:49:32.173Z,3.20
2017-12-19T15:51:59.666Z,5.07
2017-12-19T15:54:27.177Z,3.37
2017-12-19T15:56:54.694Z,5.03
2017-12-19T15:59:22.205Z,3.40
2017-12-19T16:01:49.696Z,4.43
2017-12-19T16:04:17.213Z,3.27
2017-12-19T16:06:44.704Z,3.47
2017-12-19T16:09:12.193Z,4.50
2017-12-19T16:11:40.473Z,3.97
2017-12-19T16:14:09.693Z,3.23
2017-12-19T16:16:37.194Z,3.40
2017-12-19T16:19:04.731Z,2.97
2017-12-19T16:21:32.237Z,3.07
2017-12-19T16:24:00.493Z,3.80
2017-12-19T16:26:28.006Z,3.17
2017-12-19T16:28:55.979Z,3.40
2017-12-19T16:31:23.488Z,3.33
2017-12-19T16:33:51.769Z,3.50
2017-12-19T16:36:20.025Z,3.47
2017-12-19T16:38:47.514Z,4.20
2017-12-19T16:41:15.797Z,3.20
2017-12-19T16:43:45.054Z,3.80
2017-12-19T16:46:12.541Z,3.80
2017-12-19T16:48:40.880Z,3.40
2017-12-19T16:51:08.341Z,3.13
2017-12-19T16:53:35.862Z,4.43
2017-12-19T16:56:03.358Z,4.07
2017-12-19T16:58:30.881Z,3.40
2017-12-19T17:00:58.373Z,4.90
2017-12-19T17:03:25.861Z,2.83
2017-12-19T17:05:56.109Z,3.30
2017-12-19T17:08:23.630Z,3.60
2017-12-19T17:10:51.905Z,3.40
2017-12-19T17:13:20.170Z,3.60
2017-12-19T17:15:48.458Z,3.30
2017-12-19T17:18:16.722Z,3.57
2017-12-19T17:20:45.007Z,4.07
2017-12-19T17:23:13.261Z,3.43
2017-12-19T17:25:40.781Z,3.37
2017-12-19T17:28:08.269Z,3.30
2017-12-19T17:30:35.789Z,3.60
2017-12-19T17:33:03.282Z,4.10
2017-12-19T17:35:30.789Z,3.70
2017-12-19T17:37:58.309Z,3.90
2017-12-19T17:40:27.313Z,4.53
2017-12-19T17:42:55.594Z,3.33
2017-12-19T17:45:24.817Z,3.47
2017-12-19T17:47:52.341Z,3.47
2017-12-19T17:50:19.836Z,3.47
2017-12-19T17:52:49.334Z,3.97
2017-12-19T17:55:16.833Z,2.77
2017-12-19T17:57:44.370Z,4.20
2017-12-19T18:00:11.889Z,6.97
2017-12-19T18:02:39.424Z,3.90
2017-12-19T18:05:06.932Z,4.07
2017-12-19T18:07:34.422Z,3.30
2017-12-19T18:10:01.946Z,3.10
2017-12-19T18:12:29.441Z,3.37
2017-12-19T18:14:58.462Z,3.73
2017-12-19T18:17:26.729Z,3.17
2017-12-19T18:19:55.013Z,3.20
2017-12-19T18:22:23.273Z,3.40
2017-12-19T18:24:51.558Z,3.37
2017-12-19T18:27:19.839Z,3.50
2017-12-19T18:29:48.101Z,3.37
2017-12-19T18:32:16.385Z,3.40
2017-12-19T18:34:44.646Z,3.57
2017-12-19T18:37:12.931Z,4.20
2017-12-19T18:39:41.189Z,3.50
2017-12-19T18:42:09.477Z,3.43
2017-12-19T18:44:37.728Z,3.60
2017-12-19T18:47:05.225Z,3.20
2017-12-19T18:49:32.746Z,3.63
2017-12-19T18:52:00.237Z,3.53
2017-12-19T18:54:28.493Z,3.53
2017-12-19T18:56:56.782Z,4.27
2017-12-19T18:59:25.041Z,6.10
2017-12-19T19:01:52.550Z,4.00
2017-12-19T19:04:20.065Z,7.00
2017-12-19T19:06:48.329Z,3.47
2017-12-19T19:09:15.819Z,4.77
2017-12-19T19:11:45.308Z,3.33
2017-12-19T19:14:13.564Z,4.63
2017-12-19T19:16:41.832Z,3.23
2017-12-19T19:19:10.124Z,3.30
2017-12-19T19:21:38.387Z,4.00
2017-12-19T19:24:06.674Z,3.90
2017-12-19T19:26:34.939Z,4.73
2017-12-19T19:29:02.430Z,3.30
2017-12-19T19:31:29.941Z,3.70
2017-12-19T19:33:58.379Z,3.97
2017-12-19T19:36:25.900Z,3.40
2017-12-19T19:38:54.874Z,3.50
2017-12-19T19:41:23.134Z,3.90
2017-12-19T19:43:50.665Z,3.63
2017-12-19T19:46:18.153Z,3.53
2017-12-19T19:48:45.645Z,2.97
2017-12-19T19:51:13.181Z,3.50
2017-12-19T19:53:40.697Z,3.53
2017-12-19T19:56:08.217Z,4.90
2017-12-19T19:58:35.739Z,3.90
2017-12-19T20:01:03.234Z,3.63
2017-12-19T20:03:30.749Z,3.87
2017-12-19T20:05:59.182Z,3.87
2017-12-19T20:08:26.702Z,3.97
2017-12-19T20:10:54.962Z,4.10
2017-12-19T20:13:23.417Z,2.97
2017-12-19T20:15:50.934Z,3.90
2017-12-19T20:18:20.137Z,4.03
2017-12-19T20:20:47.654Z,4.00
2017-12-19T20:23:15.145Z,3.43
2017-12-19T20:25:43.425Z,4.87
2017-12-19T20:28:10.921Z,4.50
2017-12-19T20:30:38.434Z,3.83
2017-12-19T20:33:05.934Z,5.30
2017-12-19T20:35:33.445Z,4.10
2017-12-19T20:38:01.705Z,4.43
2017-12-19T20:40:29.966Z,4.40
2017-12-19T20:42:57.481Z,5.17
2017-12-19T20:45:24.968Z,3.87
2017-12-19T20:47:52.506Z,4.83
2017-12-19T20:50:20.002Z,3.30
2017-12-19T20:52:47.511Z,4.10
2017-12-19T20:55:15.944Z,4.27
2017-12-19T20:57:44.226Z,4.73
2017-12-19T21:00:12.519Z,3.70
2017-12-19T21:02:40.793Z,3.23
2017-12-19T21:05:08.289Z,5.93
2017-12-19T21:07:35.772Z,4.03
2017-12-19T21:10:04.062Z,3.87
2017-12-19T21:12:32.321Z,3.77
2017-12-19T21:15:00.610Z,4.60
2017-12-19T21:17:28.873Z,6.00
2017-12-19T21:19:58.110Z,4.53
2017-12-19T21:22:25.610Z,4.20
2017-12-19T21:24:53.129Z,4.20
2017-12-19T21:27:20.622Z,4.60
2017-12-19T21:29:48.122Z,4.97
2017-12-19T21:32:16.401Z,4.30
2017-12-19T21:34:43.891Z,5.40
2017-12-19T21:37:11.417Z,3.57
2017-12-19T21:39:38.913Z,3.93
2017-12-19T21:42:06.429Z,4.20
2017-12-19T21:44:33.921Z,4.60
2017-12-19T21:47:01.442Z,4.40
2017-12-19T21:49:28.933Z,3.60
2017-12-19T21:51:56.756Z,4.20
2017-12-19T21:54:25.805Z,4.93
2017-12-19T21:56:53.308Z,4.13
2017-12-19T21:59:21.812Z,3.80
2017-12-19T22:01:49.318Z,4.30
2017-12-19T22:04:17.604Z,4.33
2017-12-19T22:06:45.125Z,10.47
2017-12-19T22:09:12.624Z,9.50
2017-12-19T22:11:40.885Z,5.10
2017-12-19T22:14:08.398Z,9.03
2017-12-19T22:16:35.889Z,4.40
2017-12-19T22:19:03.414Z,21.53
2017-12-19T22:21:31.857Z,5.80
2017-12-19T22:24:00.142Z,7.13
2017-12-19T22:26:27.650Z,5.70
2017-12-19T22:28:56.180Z,4.33
2017-12-19T22:31:22.688Z,8.00
2017-12-19T22:33:50.973Z,6.10
2017-12-19T22:36:19.236Z,6.10
2017-12-19T22:38:46.734Z,3.30
2017-12-19T22:41:16.220Z,5.03
2017-12-19T22:43:43.722Z,5.10
2017-12-19T22:46:11.240Z,6.70
2017-12-19T22:48:38.745Z,4.13
2017-12-19T22:51:06.340Z,3.50
2017-12-19T22:53:35.663Z,3.63
2017-12-19T22:56:03.185Z,4.07
2017-12-19T22:58:33.970Z,3.63
2017-12-19T23:01:01.825Z,4.03
2017-12-19T23:03:29.589Z,8.47
2017-12-19T23:05:57.401Z,5.90
2017-12-19T23:08:26.035Z,3.80
2017-12-19T23:10:53.534Z,4.40
2017-12-19T23:13:21.961Z,4.33
2017-12-19T23:15:49.473Z,3.93
2017-12-19T23:18:16.965Z,6.40
2017-12-19T23:20:44.458Z,4.00
2017-12-19T23:23:13.926Z,4.20
2017-12-19T23:25:41.445Z,3.47
2017-12-19T23:28:09.060Z,4.10
2017-12-19T23:30:36.606Z,4.90
2017-12-19T23:33:04.485Z,3.40
2017-12-19T23:35:32.554Z,5.07
2017-12-19T23:38:00.419Z,3.70
2017-12-19T23:40:28.285Z,6.80
2017-12-19T23:42:56.151Z,5.60
2017-12-19T23:45:24.123Z,4.30
2017-12-19T23:47:52.085Z,4.60
2017-12-19T23:50:21.076Z,4.43
2017-12-19T23:52:49.967Z,4.70
2017-12-19T23:55:18.004Z,5.80
2017-12-19T23:57:45.817Z,3.87
